sensor_id;sensor_type;location;lat;lon;timestamp;pressure;altitude;pressure_sealevel;temperature;humidity
46291;BME280;32023;44.444;26.006;2023-05-20T00:01:22;100675.09;;;15.99;64.22
46291;BME280;32023;44.444;26.006;2023-05-20T00:03:48;100674.25;;;15.98;64.18
46291;BME280;32023;44.444;26.006;2023-05-20T00:06:18;100674.25;;;15.98;64.51
46291;BME280;32023;44.444;26.006;2023-05-20T00:08:44;100675.69;;;15.96;64.56
46291;BME280;32023;44.444;26.006;2023-05-20T00:11:17;100680.13;;;15.97;64.30
46291;BME280;32023;44.444;26.006;2023-05-20T00:13:44;100672.03;;;16.00;64.51
46291;BME280;32023;44.444;26.006;2023-05-20T00:18:50;100659.22;;;16.04;64.60
46291;BME280;32023;44.444;26.006;2023-05-20T00:21:30;100668.09;;;16.06;64.72
46291;BME280;32023;44.444;26.006;2023-05-20T00:24:01;100656.97;;;16.11;64.61
46291;BME280;32023;44.444;26.006;2023-05-20T00:26:32;100649.69;;;16.15;64.78
46291;BME280;32023;44.444;26.006;2023-05-20T00:28:59;100646.94;;;16.15;64.61
46291;BME280;32023;44.444;26.006;2023-05-20T00:31:26;100637.47;;;16.16;64.37
46291;BME280;32023;44.444;26.006;2023-05-20T00:34:00;100631.91;;;16.16;64.11
46291;BME280;32023;44.444;26.006;2023-05-20T00:36:29;100642.44;;;16.19;64.04
46291;BME280;32023;44.444;26.006;2023-05-20T00:47:37;100653.47;;;16.29;64.26
46291;BME280;32023;44.444;26.006;2023-05-20T00:50:10;100642.34;;;16.29;64.33
46291;BME280;32023;44.444;26.006;2023-05-20T00:52:43;100642.34;;;16.29;63.86
46291;BME280;32023;44.444;26.006;2023-05-20T00:55:12;100635.13;;;16.28;63.84
46291;BME280;32023;44.444;26.006;2023-05-20T00:57:38;100630.13;;;16.30;63.45
46291;BME280;32023;44.444;26.006;2023-05-20T01:00:06;100621.78;;;16.30;63.29
46291;BME280;32023;44.444;26.006;2023-05-20T01:02:33;100628.47;;;16.29;63.32
46291;BME280;32023;44.444;26.006;2023-05-20T01:05:02;100627.34;;;16.30;63.23
46291;BME280;32023;44.444;26.006;2023-05-20T01:07:31;100619.53;;;16.32;63.14
46291;BME280;32023;44.444;26.006;2023-05-20T01:10:10;100613.97;;;16.32;63.32
46291;BME280;32023;44.444;26.006;2023-05-20T01:13:00;100546.22;;;15.61;63.29
46291;BME280;32023;44.444;26.006;2023-05-20T01:15:40;100621.22;;;16.28;63.45
46291;BME280;32023;44.444;26.006;2023-05-20T01:18:23;100625.69;;;16.29;63.33
46291;BME280;32023;44.444;26.006;2023-05-20T01:20:53;100624.56;;;16.30;63.28
46291;BME280;32023;44.444;26.006;2023-05-20T01:23:20;100631.25;;;16.29;63.20
46291;BME280;32023;44.444;26.006;2023-05-20T01:25:47;100628.72;;;16.28;63.18
46291;BME280;32023;44.444;26.006;2023-05-20T01:28:15;100627.34;;;16.30;63.12
46291;BME280;32023;44.444;26.006;2023-05-20T01:31:02;100632.91;;;16.30;63.50
46291;BME280;32023;44.444;26.006;2023-05-20T01:33:35;100626.19;;;16.31;63.43
46291;BME280;32023;44.444;26.006;2023-05-20T01:36:06;100622.63;;;16.31;63.47
46291;BME280;32023;44.444;26.006;2023-05-20T01:38:37;100628.19;;;16.31;63.58
46291;BME280;32023;44.444;26.006;2023-05-20T01:41:05;100617.63;;;16.28;63.82
46291;BME280;32023;44.444;26.006;2023-05-20T01:43:32;100624.31;;;16.27;63.77
46291;BME280;32023;44.444;26.006;2023-05-20T01:45:59;100633.53;;;16.22;63.86
46291;BME280;32023;44.444;26.006;2023-05-20T01:48:28;100628.00;;;16.17;64.35
46291;BME280;32023;44.444;26.006;2023-05-20T01:50:55;100621.94;;;16.10;64.43
46291;BME280;32023;44.444;26.006;2023-05-20T01:53:21;100625.66;;;16.01;64.58
46291;BME280;32023;44.444;26.006;2023-05-20T01:55:48;100625.69;;;15.96;64.65
46291;BME280;32023;44.444;26.006;2023-05-20T01:58:14;100631.22;;;15.96;64.89
46291;BME280;32023;44.444;26.006;2023-05-20T02:00:41;100628.72;;;15.94;65.04
46291;BME280;32023;44.444;26.006;2023-05-20T02:03:07;100624.00;;;15.95;65.40
46291;BME280;32023;44.444;26.006;2023-05-20T02:05:33;100624.25;;;15.98;65.23
46291;BME280;32023;44.444;26.006;2023-05-20T02:08:00;100631.47;;;15.99;65.05
46291;BME280;32023;44.444;26.006;2023-05-20T02:10:48;100621.78;;;15.97;65.04
46291;BME280;32023;44.444;26.006;2023-05-20T02:13:14;100627.63;;;15.95;65.33
46291;BME280;32023;44.444;26.006;2023-05-20T02:15:44;100623.72;;;15.96;65.42
46291;BME280;32023;44.444;26.006;2023-05-20T02:18:14;100622.06;;;15.95;65.59
46291;BME280;32023;44.444;26.006;2023-05-20T02:20:46;100623.75;;;15.91;65.98
46291;BME280;32023;44.444;26.006;2023-05-20T02:23:13;100630.72;;;15.88;65.89
46291;BME280;32023;44.444;26.006;2023-05-20T02:25:43;100627.69;;;15.85;65.93
46291;BME280;32023;44.444;26.006;2023-05-20T02:28:09;100636.63;;;15.82;66.09
46291;BME280;32023;44.444;26.006;2023-05-20T02:30:37;100633.84;;;15.77;66.17
46291;BME280;32023;44.444;26.006;2023-05-20T02:33:16;100635.81;;;15.71;66.51
46291;BME280;32023;44.444;26.006;2023-05-20T02:35:43;100631.97;;;15.67;66.50
46291;BME280;32023;44.444;26.006;2023-05-20T02:38:16;100630.06;;;15.63;66.73
46291;BME280;32023;44.444;26.006;2023-05-20T02:40:46;100624.53;;;15.58;67.21
46291;BME280;32023;44.444;26.006;2023-05-20T02:43:16;100633.44;;;15.55;67.03
46291;BME280;32023;44.444;26.006;2023-05-20T02:45:43;100635.66;;;15.53;67.40
46291;BME280;32023;44.444;26.006;2023-05-20T02:48:12;100627.06;;;15.49;67.37
46291;BME280;32023;44.444;26.006;2023-05-20T02:50:39;100634.84;;;15.47;67.88
46291;BME280;32023;44.444;26.006;2023-05-20T02:53:06;100637.63;;;15.42;68.20
46291;BME280;32023;44.444;26.006;2023-05-20T02:55:35;100629.88;;;15.39;68.18
46291;BME280;32023;44.444;26.006;2023-05-20T02:58:05;100636.03;;;15.31;68.43
46291;BME280;32023;44.444;26.006;2023-05-20T03:00:31;100643.81;;;15.29;68.64
46291;BME280;32023;44.444;26.006;2023-05-20T03:03:06;100652.41;;;15.27;68.90
46291;BME280;32023;44.444;26.006;2023-05-20T03:05:45;100652.72;;;15.21;69.04
46291;BME280;32023;44.444;26.006;2023-05-20T03:08:14;100655.75;;;15.19;69.49
46291;BME280;32023;44.444;26.006;2023-05-20T03:10:41;100654.09;;;15.18;69.56
46291;BME280;32023;44.444;26.006;2023-05-20T03:13:08;100662.16;;;15.20;69.62
46291;BME280;32023;44.444;26.006;2023-05-20T03:15:45;100659.38;;;15.20;69.76
46291;BME280;32023;44.444;26.006;2023-05-20T03:18:11;100660.47;;;15.19;69.63
46291;BME280;32023;44.444;26.006;2023-05-20T03:20:55;100660.47;;;15.19;69.93
46291;BME280;32023;44.444;26.006;2023-05-20T03:23:41;100677.13;;;15.19;69.65
46291;BME280;32023;44.444;26.006;2023-05-20T03:26:07;100666.84;;;15.19;69.90
46291;BME280;32023;44.444;26.006;2023-05-20T03:28:37;100665.47;;;15.22;70.20
46291;BME280;32023;44.444;26.006;2023-05-20T03:31:34;100671.28;;;15.25;69.98
46291;BME280;32023;44.444;26.006;2023-05-20T03:34:01;100677.94;;;15.29;69.98
46291;BME280;32023;44.444;26.006;2023-05-20T03:36:30;100676.81;;;15.30;70.06
46291;BME280;32023;44.444;26.006;2023-05-20T03:38:57;100683.44;;;15.34;70.12
46291;BME280;32023;44.444;26.006;2023-05-20T03:41:26;100685.13;;;15.40;69.85
46291;BME280;32023;44.444;26.006;2023-05-20T03:43:53;100688.41;;;15.42;69.57
46291;BME280;32023;44.444;26.006;2023-05-20T03:46:19;100683.13;;;15.46;69.71
46291;BME280;32023;44.444;26.006;2023-05-20T03:48:48;100687.28;;;15.49;69.89
46291;BME280;32023;44.444;26.006;2023-05-20T03:51:17;100683.41;;;15.50;69.77
46291;BME280;32023;44.444;26.006;2023-05-20T03:53:44;100682.84;;;15.48;68.96
46291;BME280;32023;44.444;26.006;2023-05-20T03:56:18;100685.09;;;15.51;68.68
46291;BME280;32023;44.444;26.006;2023-05-20T03:59:01;100691.47;;;15.51;68.97
46291;BME280;32023;44.444;26.006;2023-05-20T04:01:34;100695.63;;;15.54;69.29
46291;BME280;32023;44.444;26.006;2023-05-20T04:04:02;100690.91;;;15.54;69.00
46291;BME280;32023;44.444;26.006;2023-05-20T04:06:31;100698.13;;;15.55;69.10
46291;BME280;32023;44.444;26.006;2023-05-20T04:09:05;100703.94;;;15.59;69.31
46291;BME280;32023;44.444;26.006;2023-05-20T04:11:34;100703.34;;;15.62;69.45
46291;BME280;32023;44.444;26.006;2023-05-20T04:14:01;100706.66;;;15.64;69.33
46291;BME280;32023;44.444;26.006;2023-05-20T04:16:30;100713.31;;;15.68;69.12
46291;BME280;32023;44.444;26.006;2023-05-20T04:18:57;100706.88;;;15.77;68.88
46291;BME280;32023;44.444;26.006;2023-05-20T04:21:24;100701.84;;;15.84;68.39
46291;BME280;32023;44.444;26.006;2023-05-20T04:23:53;100713.19;;;15.93;67.89
46291;BME280;32023;44.444;26.006;2023-05-20T04:26:19;100714.53;;;16.01;67.10
46291;BME280;32023;44.444;26.006;2023-05-20T04:28:46;100728.34;;;16.11;67.02
46291;BME280;32023;44.444;26.006;2023-05-20T04:31:19;100723.63;;;16.16;66.84
46291;BME280;32023;44.444;26.006;2023-05-20T04:33:46;100725.84;;;16.14;66.46
46291;BME280;32023;44.444;26.006;2023-05-20T04:36:14;100725.25;;;16.17;66.40
46291;BME280;32023;44.444;26.006;2023-05-20T04:38:41;100722.78;;;16.16;65.70
46291;BME280;32023;44.444;26.006;2023-05-20T04:41:11;100725.81;;;16.19;65.79
46291;BME280;32023;44.444;26.006;2023-05-20T04:43:38;100736.59;;;16.26;65.42
46291;BME280;32023;44.444;26.006;2023-05-20T04:46:05;100737.69;;;16.30;65.65
46291;BME280;32023;44.444;26.006;2023-05-20T04:48:39;100742.28;;;16.45;65.68
46291;BME280;32023;44.444;26.006;2023-05-20T04:51:06;100744.66;;;16.66;65.07
46291;BME280;32023;44.444;26.006;2023-05-20T04:53:33;100748.63;;;16.89;64.66
46291;BME280;32023;44.444;26.006;2023-05-20T04:56:16;100753.66;;;17.16;63.28
46291;BME280;32023;44.444;26.006;2023-05-20T04:58:42;100747.78;;;17.41;62.71
46291;BME280;32023;44.444;26.006;2023-05-20T05:01:12;100748.63;;;17.70;61.80
46291;BME280;32023;44.444;26.006;2023-05-20T05:03:50;100744.13;;;17.93;61.34
46291;BME280;32023;44.444;26.006;2023-05-20T05:06:19;100745.94;;;18.03;60.47
46291;BME280;32023;44.444;26.006;2023-05-20T05:08:52;100747.78;;;18.12;59.77
46291;BME280;32023;44.444;26.006;2023-05-20T05:11:30;100752.13;;;18.18;59.23
46291;BME280;32023;44.444;26.006;2023-05-20T05:13:56;100749.19;;;18.28;59.19
46291;BME280;32023;44.444;26.006;2023-05-20T05:16:36;100754.53;;;18.44;58.97
46291;BME280;32023;44.444;26.006;2023-05-20T05:19:02;100757.94;;;18.59;58.71
46291;BME280;32023;44.444;26.006;2023-05-20T05:21:30;100760.69;;;18.78;58.28
46291;BME280;32023;44.444;26.006;2023-05-20T05:24:05;100751.44;;;18.96;56.97
46291;BME280;32023;44.444;26.006;2023-05-20T05:26:41;100759.56;;;19.11;55.27
46291;BME280;32023;44.444;26.006;2023-05-20T05:29:11;100757.09;;;19.23;54.59
46291;BME280;32023;44.444;26.006;2023-05-20T05:31:46;100760.44;;;19.39;54.33
46291;BME280;32023;44.444;26.006;2023-05-20T05:34:13;100765.13;;;19.44;53.52
46291;BME280;32023;44.444;26.006;2023-05-20T05:36:52;100767.94;;;19.44;52.69
46291;BME280;32023;44.444;26.006;2023-05-20T05:39:49;100769.59;;;19.45;52.35
46291;BME280;32023;44.444;26.006;2023-05-20T05:42:22;100777.44;;;19.56;52.21
46291;BME280;32023;44.444;26.006;2023-05-20T05:44:49;100774.13;;;19.68;52.19
46291;BME280;32023;44.444;26.006;2023-05-20T05:47:25;100782.84;;;19.80;52.14
46291;BME280;32023;44.444;26.006;2023-05-20T05:49:59;100781.47;;;19.91;52.27
46291;BME280;32023;44.444;26.006;2023-05-20T05:52:33;100775.38;;;20.03;51.98
46291;BME280;32023;44.444;26.006;2023-05-20T05:55:03;100784.47;;;20.08;51.99
46291;BME280;32023;44.444;26.006;2023-05-20T05:57:34;100783.75;;;20.16;51.84
46291;BME280;32023;44.444;26.006;2023-05-20T06:00:10;100788.91;;;20.23;51.77
46291;BME280;32023;44.444;26.006;2023-05-20T06:03:21;100786.22;;;20.32;51.69
46291;BME280;32023;44.444;26.006;2023-05-20T06:05:56;100779.25;;;20.43;51.48
46291;BME280;32023;44.444;26.006;2023-05-20T06:08:48;100778.00;;;20.49;50.73
46291;BME280;32023;44.444;26.006;2023-05-20T06:11:19;100778.38;;;20.56;50.69
46291;BME280;32023;44.444;26.006;2023-05-20T06:16:29;100775.22;;;20.71;49.82
46291;BME280;32023;44.444;26.006;2023-05-20T06:19:16;100781.56;;;20.85;49.89
46291;BME280;32023;44.444;26.006;2023-05-20T06:21:57;100780.03;;;21.01;49.72
46291;BME280;32023;44.444;26.006;2023-05-20T06:24:42;100777.75;;;21.03;49.70
46291;BME280;32023;44.444;26.006;2023-05-20T06:27:29;100773.59;;;21.01;49.35
46291;BME280;32023;44.444;26.006;2023-05-20T06:30:02;100771.16;;;20.99;49.48
46291;BME280;32023;44.444;26.006;2023-05-20T06:32:44;100775.47;;;21.05;49.54
46291;BME280;32023;44.444;26.006;2023-05-20T06:35:20;100770.19;;;21.26;49.19
46291;BME280;32023;44.444;26.006;2023-05-20T06:37:51;100760.53;;;21.41;48.87
46291;BME280;32023;44.444;26.006;2023-05-20T06:40:31;100765.50;;;21.44;48.47
46291;BME280;32023;44.444;26.006;2023-05-20T06:42:59;100766.03;;;21.54;48.79
46291;BME280;32023;44.444;26.006;2023-05-20T06:45:25;100763.66;;;21.79;48.59
46291;BME280;32023;44.444;26.006;2023-05-20T06:47:52;100760.09;;;21.95;48.05
46291;BME280;32023;44.444;26.006;2023-05-20T06:50:24;100763.59;;;22.09;47.76
46291;BME280;32023;44.444;26.006;2023-05-20T06:56:22;100759.19;;;22.43;46.70
46291;BME280;32023;44.444;26.006;2023-05-20T07:01:58;100763.34;;;22.71;46.33
46291;BME280;32023;44.444;26.006;2023-05-20T07:04:53;100763.66;;;22.78;45.88
46291;BME280;32023;44.444;26.006;2023-05-20T07:10:40;100760.19;;;22.64;46.15
46291;BME280;32023;44.444;26.006;2023-05-20T07:13:13;100751.91;;;22.59;45.99
46291;BME280;32023;44.444;26.006;2023-05-20T07:16:39;100764.31;;;22.41;46.16
46291;BME280;32023;44.444;26.006;2023-05-20T07:22:07;100756.88;;;22.28;46.80
46291;BME280;32023;44.444;26.006;2023-05-20T07:24:41;100757.03;;;22.48;46.44
46291;BME280;32023;44.444;26.006;2023-05-20T07:27:11;100741.38;;;22.73;45.91
46291;BME280;32023;44.444;26.006;2023-05-20T07:29:39;100752.06;;;22.97;45.50
46291;BME280;32023;44.444;26.006;2023-05-20T07:32:11;100743.94;;;23.21;44.90
46291;BME280;32023;44.444;26.006;2023-05-20T07:34:39;100741.22;;;23.42;44.13
46291;BME280;32023;44.444;26.006;2023-05-20T07:37:05;100743.41;;;23.45;44.19
46291;BME280;32023;44.444;26.006;2023-05-20T07:39:41;100733.59;;;23.51;43.72
46291;BME280;32023;44.444;26.006;2023-05-20T07:42:09;100729.44;;;23.57;43.28
46291;BME280;32023;44.444;26.006;2023-05-20T07:44:59;100726.41;;;23.71;43.18
46291;BME280;32023;44.444;26.006;2023-05-20T07:51:01;100723.41;;;24.26;41.95
46291;BME280;32023;44.444;26.006;2023-05-20T07:54:17;100711.13;;;24.30;41.42
46291;BME280;32023;44.444;26.006;2023-05-20T08:06:32;100712.75;;;24.52;40.77
46291;BME280;32023;44.444;26.006;2023-05-20T08:12:08;100717.03;;;24.58;40.88
46291;BME280;32023;44.444;26.006;2023-05-20T08:21:29;100724.53;;;25.20;39.79
46291;BME280;32023;44.444;26.006;2023-05-20T08:24:14;100723.69;;;25.52;39.17
46291;BME280;32023;44.444;26.006;2023-05-20T08:27:15;100726.50;;;25.88;38.69
46291;BME280;32023;44.444;26.006;2023-05-20T08:29:55;100720.72;;;26.21;38.04
46291;BME280;32023;44.444;26.006;2023-05-20T08:32:32;100726.44;;;26.37;37.11
46291;BME280;32023;44.444;26.006;2023-05-20T08:35:54;100720.94;;;26.68;37.10
46291;BME280;32023;44.444;26.006;2023-05-20T08:39:13;100719.03;;;26.85;35.68
46291;BME280;32023;44.444;26.006;2023-05-20T08:48:12;100714.63;;;27.15;35.54
46291;BME280;32023;44.444;26.006;2023-05-20T08:51:14;100714.09;;;27.41;34.84
46291;BME280;32023;44.444;26.006;2023-05-20T09:02:59;100706.16;;;28.28;33.31
46291;BME280;32023;44.444;26.006;2023-05-20T09:05:46;100712.69;;;28.13;32.81
46291;BME280;32023;44.444;26.006;2023-05-20T09:08:50;100715.06;;;27.95;33.23
46291;BME280;32023;44.444;26.006;2023-05-20T09:11:47;100697.31;;;28.14;33.02
46291;BME280;32023;44.444;26.006;2023-05-20T09:14:45;100697.13;;;28.42;32.80
46291;BME280;32023;44.444;26.006;2023-05-20T09:21:17;100694.38;;;29.03;31.41
46291;BME280;32023;44.444;26.006;2023-05-20T09:27:27;100677.81;;;29.50;30.82
46291;BME280;32023;44.444;26.006;2023-05-20T09:30:33;100675.91;;;29.58;30.81
46291;BME280;32023;44.444;26.006;2023-05-20T09:36:47;100673.50;;;29.83;30.41
46291;BME280;32023;44.444;26.006;2023-05-20T09:48:00;100661.59;;;30.93;28.67
46291;BME280;32023;44.444;26.006;2023-05-20T09:50:27;100664.94;;;31.02;28.25
46291;BME280;32023;44.444;26.006;2023-05-20T09:52:56;100659.94;;;30.92;28.42
46291;BME280;32023;44.444;26.006;2023-05-20T09:55:51;100660.56;;;30.75;28.79
46291;BME280;32023;44.444;26.006;2023-05-20T09:58:21;100662.19;;;30.76;28.83
46291;BME280;32023;44.444;26.006;2023-05-20T10:00:51;100661.47;;;30.49;28.93
46291;BME280;32023;44.444;26.006;2023-05-20T10:03:30;100664.28;;;30.45;29.14
46291;BME280;32023;44.444;26.006;2023-05-20T10:14:45;100629.09;;;31.34;26.04
46291;BME280;32023;44.444;26.006;2023-05-20T10:23:42;100633.16;;;32.64;24.67
46291;BME280;32023;44.444;26.006;2023-05-20T10:26:18;100635.34;;;33.83;23.49
46291;BME280;32023;44.444;26.006;2023-05-20T10:29:03;100634.66;;;34.73;22.27
46291;BME280;32023;44.444;26.006;2023-05-20T10:31:51;100630.31;;;36.40;20.17
46291;BME280;32023;44.444;26.006;2023-05-20T10:34:20;100626.59;;;36.43;19.92
46291;BME280;32023;44.444;26.006;2023-05-20T10:37:00;100625.41;;;36.03;20.13
46291;BME280;32023;44.444;26.006;2023-05-20T10:50:24;100610.91;;;38.44;18.13
46291;BME280;32023;44.444;26.006;2023-05-20T10:56:31;100600.09;;;39.04;17.08
46291;BME280;32023;44.444;26.006;2023-05-20T10:59:52;100600.03;;;39.23;16.96
46291;BME280;32023;44.444;26.006;2023-05-20T11:02:24;100596.84;;;39.18;16.89
46291;BME280;32023;44.444;26.006;2023-05-20T11:04:56;100587.97;;;37.31;18.57
46291;BME280;32023;44.444;26.006;2023-05-20T11:07:29;100589.34;;;36.96;18.57
46291;BME280;32023;44.444;26.006;2023-05-20T11:10:06;100589.22;;;36.46;18.90
46291;BME280;32023;44.444;26.006;2023-05-20T11:15:43;100587.88;;;34.11;21.31
46291;BME280;32023;44.444;26.006;2023-05-20T11:19:02;100568.38;;;32.75;22.05
46291;BME280;32023;44.444;26.006;2023-05-20T11:30:18;100531.34;;;30.35;23.76
46291;BME280;32023;44.444;26.006;2023-05-20T11:33:10;100539.16;;;30.08;23.66
46291;BME280;32023;44.444;26.006;2023-05-20T11:36:09;100530.97;;;30.40;23.58
46291;BME280;32023;44.444;26.006;2023-05-20T11:42:14;100525.75;;;30.83;24.05
46291;BME280;32023;44.444;26.006;2023-05-20T11:44:52;100531.81;;;30.41;24.49
46291;BME280;32023;44.444;26.006;2023-05-20T11:47:30;100533.09;;;30.10;24.90
46291;BME280;32023;44.444;26.006;2023-05-20T11:50:36;100533.06;;;29.50;25.18
46291;BME280;32023;44.444;26.006;2023-05-20T11:53:19;100529.72;;;28.92;26.15
46291;BME280;32023;44.444;26.006;2023-05-20T11:56:05;100515.22;;;28.75;26.56
46291;BME280;32023;44.444;26.006;2023-05-20T11:59:16;100515.66;;;28.77;26.68
46291;BME280;32023;44.444;26.006;2023-05-20T12:02:24;100507.59;;;29.28;26.35
46291;BME280;32023;44.444;26.006;2023-05-20T12:05:00;100498.28;;;29.53;24.69
46291;BME280;32023;44.444;26.006;2023-05-20T12:07:32;100471.72;;;29.42;23.29
46291;BME280;32023;44.444;26.006;2023-05-20T12:10:10;100497.75;;;28.95;24.36
46291;BME280;32023;44.444;26.006;2023-05-20T12:12:38;100492.78;;;28.89;24.73
46291;BME280;32023;44.444;26.006;2023-05-20T12:15:11;100486.41;;;29.22;24.12
46291;BME280;32023;44.444;26.006;2023-05-20T12:17:47;100478.69;;;29.45;23.30
46291;BME280;32023;44.444;26.006;2023-05-20T12:20:25;100480.69;;;29.18;23.30
46291;BME280;32023;44.444;26.006;2023-05-20T12:22:52;100475.88;;;29.22;23.67
46291;BME280;32023;44.444;26.006;2023-05-20T12:25:19;100473.19;;;29.29;23.37
46291;BME280;32023;44.444;26.006;2023-05-20T12:27:51;100482.63;;;29.37;23.58
46291;BME280;32023;44.444;26.006;2023-05-20T12:30:25;100485.66;;;29.51;23.46
46291;BME280;32023;44.444;26.006;2023-05-20T12:32:51;100484.59;;;29.62;23.26
46291;BME280;32023;44.444;26.006;2023-05-20T12:35:25;100468.72;;;29.58;22.35
46291;BME280;32023;44.444;26.006;2023-05-20T12:38:22;100471.22;;;29.33;22.66
46291;BME280;32023;44.444;26.006;2023-05-20T12:41:02;100461.72;;;28.96;23.56
46291;BME280;32023;44.444;26.006;2023-05-20T12:43:40;100452.53;;;29.06;23.31
46291;BME280;32023;44.444;26.006;2023-05-20T12:46:08;100451.94;;;28.93;23.36
46291;BME280;32023;44.444;26.006;2023-05-20T12:48:59;100453.09;;;28.66;23.52
46291;BME280;32023;44.444;26.006;2023-05-20T12:51:25;100445.16;;;28.52;24.05
46291;BME280;32023;44.444;26.006;2023-05-20T12:53:52;100438.59;;;28.48;24.27
46291;BME280;32023;44.444;26.006;2023-05-20T12:56:18;100447.22;;;28.55;24.02
46291;BME280;32023;44.444;26.006;2023-05-20T12:58:50;100441.31;;;28.41;23.62
46291;BME280;32023;44.444;26.006;2023-05-20T13:01:17;100429.88;;;28.34;24.26
46291;BME280;32023;44.444;26.006;2023-05-20T13:04:08;100461.41;;;28.33;24.68
46291;BME280;32023;44.444;26.006;2023-05-20T13:06:41;100442.00;;;27.93;27.99
46291;BME280;32023;44.444;26.006;2023-05-20T13:09:10;100458.84;;;27.47;28.65
46291;BME280;32023;44.444;26.006;2023-05-20T13:11:42;100457.78;;;26.86;29.10
46291;BME280;32023;44.444;26.006;2023-05-20T13:14:14;100470.09;;;26.30;29.60
46291;BME280;32023;44.444;26.006;2023-05-20T13:19:51;100461.03;;;25.54;30.35
46291;BME280;32023;44.444;26.006;2023-05-20T13:25:41;100481.44;;;25.11;30.18
46291;BME280;32023;44.444;26.006;2023-05-20T13:28:30;100477.69;;;25.07;30.22
46291;BME280;32023;44.444;26.006;2023-05-20T13:31:12;100485.69;;;24.92;29.95
46291;BME280;32023;44.444;26.006;2023-05-20T13:33:38;100477.56;;;24.91;30.00
46291;BME280;32023;44.444;26.006;2023-05-20T13:36:07;100474.16;;;24.85;29.89
46291;BME280;32023;44.444;26.006;2023-05-20T13:39:04;100476.72;;;24.78;30.23
46291;BME280;32023;44.444;26.006;2023-05-20T13:41:33;100477.66;;;24.70;29.89
46291;BME280;32023;44.444;26.006;2023-05-20T13:44:24;100480.25;;;24.75;30.12
46291;BME280;32023;44.444;26.006;2023-05-20T13:47:16;100476.72;;;24.66;29.56
46291;BME280;32023;44.444;26.006;2023-05-20T13:49:58;100476.47;;;24.59;29.55
46291;BME280;32023;44.444;26.006;2023-05-20T13:52:24;100487.41;;;24.61;29.71
46291;BME280;32023;44.444;26.006;2023-05-20T13:58:28;100482.94;;;24.60;29.92
46291;BME280;32023;44.444;26.006;2023-05-20T14:03:50;100489.88;;;24.62;31.00
46291;BME280;32023;44.444;26.006;2023-05-20T14:06:17;100501.00;;;24.71;31.48
46291;BME280;32023;44.444;26.006;2023-05-20T14:08:52;100503.38;;;24.69;32.14
46291;BME280;32023;44.444;26.006;2023-05-20T14:12:06;100495.97;;;24.64;32.28
46291;BME280;32023;44.444;26.006;2023-05-20T14:15:22;100502.75;;;24.51;33.13
46291;BME280;32023;44.444;26.006;2023-05-20T14:21:36;100501.34;;;24.57;33.71
46291;BME280;32023;44.444;26.006;2023-05-20T14:24:21;100494.31;;;24.63;33.85
46291;BME280;32023;44.444;26.006;2023-05-20T14:27:05;100497.13;;;24.75;34.10
46291;BME280;32023;44.444;26.006;2023-05-20T14:29:53;100506.81;;;24.86;34.09
46291;BME280;32023;44.444;26.006;2023-05-20T14:32:28;100492.72;;;24.99;33.78
46291;BME280;32023;44.444;26.006;2023-05-20T14:35:28;100498.56;;;24.93;34.15
46291;BME280;32023;44.444;26.006;2023-05-20T14:38:15;100500.81;;;24.88;34.05
46291;BME280;32023;44.444;26.006;2023-05-20T14:41:00;100490.56;;;24.83;33.92
46291;BME280;32023;44.444;26.006;2023-05-20T14:43:40;100493.38;;;24.83;34.14
46291;BME280;32023;44.444;26.006;2023-05-20T14:46:39;100479.53;;;24.78;34.05
46291;BME280;32023;44.444;26.006;2023-05-20T14:49:26;100479.91;;;24.77;33.98
46291;BME280;32023;44.444;26.006;2023-05-20T14:52:45;100476.25;;;24.64;33.91
46291;BME280;32023;44.444;26.006;2023-05-20T14:55:31;100466.75;;;24.57;34.29
46291;BME280;32023;44.444;26.006;2023-05-20T14:58:05;100464.75;;;24.57;34.55
46291;BME280;32023;44.444;26.006;2023-05-20T15:01:22;100457.34;;;24.53;34.85
46291;BME280;32023;44.444;26.006;2023-05-20T15:04:33;100453.47;;;24.45;35.25
46291;BME280;32023;44.444;26.006;2023-05-20T15:10:27;100443.13;;;24.37;35.52
46291;BME280;32023;44.444;26.006;2023-05-20T15:13:41;100438.44;;;24.29;36.07
46291;BME280;32023;44.444;26.006;2023-05-20T15:16:19;100363.88;;;23.78;36.15
46291;BME280;32023;44.444;26.006;2023-05-20T15:22:34;100429.31;;;24.32;35.96
46291;BME280;32023;44.444;26.006;2023-05-20T15:46:24;100427.69;;;23.98;39.29
46291;BME280;32023;44.444;26.006;2023-05-20T15:52:32;100413.72;;;23.89;38.82
46291;BME280;32023;44.444;26.006;2023-05-20T15:55:14;100417.09;;;23.83;37.62
46291;BME280;32023;44.444;26.006;2023-05-20T15:58:56;100422.25;;;23.81;37.77
46291;BME280;32023;44.444;26.006;2023-05-20T16:05:12;100423.63;;;23.75;37.15
46291;BME280;32023;44.444;26.006;2023-05-20T16:08:14;100419.94;;;23.62;36.40
46291;BME280;32023;44.444;26.006;2023-05-20T16:11:10;100443.41;;;23.45;36.15
46291;BME280;32023;44.444;26.006;2023-05-20T16:17:37;100443.31;;;23.13;36.63
46291;BME280;32023;44.444;26.006;2023-05-20T16:23:34;100444.47;;;22.91;37.17
46291;BME280;32023;44.444;26.006;2023-05-20T16:29:24;100445.75;;;22.64;38.48
46291;BME280;32023;44.444;26.006;2023-05-20T16:32:16;100445.31;;;22.53;38.96
46291;BME280;32023;44.444;26.006;2023-05-20T16:42:07;100442.97;;;22.18;40.67
46291;BME280;32023;44.444;26.006;2023-05-20T16:48:49;100449.97;;;21.94;41.67
46291;BME280;32023;44.444;26.006;2023-05-20T16:51:47;100445.84;;;21.83;42.00
46291;BME280;32023;44.444;26.006;2023-05-20T16:54:31;100446.03;;;21.78;42.13